Conway Springs, KS (67031)

7:48 PM CDT on August 24, 2016 (GMT -0500)
WSU Field Station | | Change Station
Active Advisory: Severe Thunderstorm Watch

Elev 1332 ft 37.53 °N, 97.67 °W | Updated 55 seconds ago

Mostly Cloudy
Mostly Cloudy
80.7 °F
Feels Like 85 °F
N
0.0
Wind Variable Wind from ENE
Gusts 0.0 mph

Today
High -- | Low -- °F
--% Chance of Precip.
Yesterday
High -- | Low -- °F
Precip. -- in
Pressure 29.90 in
Visibility 10.0 miles
Clouds Few 7000 ft
Few 9000 ft
Scattered Clouds 18000 ft
Mostly Cloudy 22000 ft
Heat Index 85 °F
Dew Point 71 °F
Humidity 73%
Rainfall 0.00 in
Snow Depth Not available.
6:54 AM 8:10 PM
Waning Gibbous, 51% visible
METAR KICT 242353Z 33013KT 10SM FEW070 FEW090 SCT180 BKN220 29/20 A2994 RMK AO2 WSHFT 2255 TSE00 SLP123 CB DSNT N-NE-SE MOV NE TS MOVD NE T02940200 10344 20289 55003
Pressure 29.90 in
Visibility 10.0 miles
Clouds Few 7000 ft
Few 9000 ft
Scattered Clouds 18000 ft
Mostly Cloudy 22000 ft
Heat Index 85 °F
Dew Point 71 °F
Humidity 73%
Rainfall 0.00 in
Snow Depth Not available.
6:54 AM 8:10 PM
Waning Gibbous, 51% visible
METAR KICT 242353Z 33013KT 10SM FEW070 FEW090 SCT180 BKN220 29/20 A2994 RMK AO2 WSHFT 2255 TSE00 SLP123 CB DSNT N-NE-SE MOV NE TS MOVD NE T02940200 10344 20289 55003

10-Day Weather Forecast

Almanac

Astronomy

Aug. 24, 2016 Rise Set
Actual Time
Civil Twilight
Nautical Twilight
Astronomical Twilight
Moon
Length of Visible Light
Length of Day
Tomorrow will be .
, % of the Moon is Illuminated

Today's Extremes

State Highs State Lows

Community

WunderPhotos

Upload Photos

1,934,748 photos uploaded!

WunderBlog® & News

Nearby

Air Quality

  Air Quality AQ Index Pollutant
Not available.

Snow Depth

Station Depth Elevation

Earthquake Activity

City Distance Mag. Time & Date
Minimum magnitude displayed is 2.5.

Coastal Water Temperatures

Place Temperature

Stations

Nearby Weather Stations

Station Location Temp. Windchill Dew Point Humidity Wind Precip. Elev Updated Type
                   

Watches & Warnings

Severe Thunderstorm Watch
Issued: 7:43 PM CDT Aug. 24, 2016 – National Weather Service

Severe Thunderstorm Watch 455 remains in effect until 1100 PM CDT
for the following locations


KS
. Kansas counties included are

Allen Anderson Atchison
Brown Butler Chase
Chautauqua Coffey Cowley
Dickinson Doniphan Douglas
Elk Franklin Geary
Greenwood Harper Harvey
Jackson Jefferson Johnson
Kingman Leavenworth Linn
Lyon McPherson Marion
Miami Morris Nemaha
Osage Pottawatomie Reno
Riley Sedgwick Shawnee
Sumner Wabaunsee Wilson
Woodson Wyandotte